createdAt,value
2023-01-21T00:02:56.519Z,80.55
2023-01-21T00:05:59.776Z,80.50
2023-01-21T00:09:04.114Z,80.46
2023-01-21T00:12:07.606Z,80.49
2023-01-21T00:15:11.048Z,80.48
2023-01-21T00:18:15.324Z,80.51
2023-01-21T00:21:18.677Z,80.51
2023-01-21T00:24:24.456Z,80.57
2023-01-21T00:27:27.737Z,80.59
2023-01-21T00:30:31.052Z,80.64
2023-01-21T00:33:45.238Z,80.71
2023-01-21T00:36:48.455Z,80.70
2023-01-21T00:39:51.955Z,80.70
2023-01-21T00:42:55.284Z,80.75
2023-01-21T00:45:59.091Z,80.79
2023-01-21T00:49:02.501Z,80.79
2023-01-21T00:52:05.857Z,80.83
2023-01-21T00:55:09.332Z,80.87
2023-01-21T00:58:12.768Z,80.94
2023-01-21T01:01:19.340Z,80.98
2023-01-21T01:04:23.087Z,80.99
2023-01-21T01:07:26.247Z,80.99
2023-01-21T01:10:29.504Z,81.01
2023-01-21T01:13:34.975Z,81.03
2023-01-21T01:16:38.294Z,81.07
2023-01-21T01:19:41.507Z,81.14
2023-01-21T01:22:44.743Z,81.17
2023-01-21T01:26:02.792Z,81.16
2023-01-21T01:29:06.740Z,81.22
2023-01-21T01:32:10.843Z,81.24
2023-01-21T01:35:14.086Z,81.24
2023-01-21T01:38:22.466Z,81.23
2023-01-21T01:41:29.536Z,81.23
2023-01-21T01:44:57.558Z,81.26
2023-01-21T01:48:06.230Z,81.28
2023-01-21T01:51:10.086Z,81.28
2023-01-21T01:54:18.180Z,81.30
2023-01-21T01:57:24.005Z,81.30
2023-01-21T02:00:27.632Z,81.29
2023-01-21T02:03:44.929Z,81.28
2023-01-21T02:06:49.052Z,81.28
2023-01-21T02:09:53.801Z,81.25
2023-01-21T02:12:57.045Z,81.26
2023-01-21T02:16:15.126Z,81.32
2023-01-21T02:19:42.288Z,81.39
2023-01-21T02:23:12.344Z,81.36
2023-01-21T02:26:21.032Z,81.39
2023-01-21T02:29:52.941Z,81.43
2023-01-21T02:33:14.400Z,81.46
2023-01-21T02:36:35.971Z,81.47
2023-01-21T02:39:54.468Z,81.48
2023-01-21T02:43:08.396Z,81.50
2023-01-21T02:46:34.115Z,81.49
2023-01-21T02:49:45.407Z,81.51
2023-01-21T02:52:59.072Z,81.53
2023-01-21T02:56:12.201Z,81.51
2023-01-21T02:59:15.424Z,81.51
2023-01-21T03:02:46.474Z,81.49
2023-01-21T03:05:57.104Z,81.48
2023-01-21T03:09:10.232Z,81.44
2023-01-21T03:12:45.277Z,81.44
2023-01-21T03:16:14.409Z,81.42
2023-01-21T03:19:19.660Z,81.33
2023-01-21T03:22:27.983Z,81.31
2023-01-21T03:25:34.004Z,81.32
2023-01-21T03:28:44.759Z,81.32
2023-01-21T03:31:52.207Z,81.31
2023-01-21T03:34:56.706Z,81.32
2023-01-21T03:38:21.784Z,81.30
2023-01-21T03:41:33.580Z,81.26
2023-01-21T03:44:38.000Z,81.21
2023-01-21T03:47:50.473Z,81.14
2023-01-21T03:50:59.781Z,81.14
2023-01-21T03:54:03.051Z,81.10
2023-01-21T03:57:06.537Z,81.10
2023-01-21T04:00:10.798Z,81.09
2023-01-21T04:03:13.985Z,81.08
2023-01-21T04:06:20.233Z,81.02
2023-01-21T04:09:23.711Z,80.98
2023-01-21T04:12:26.896Z,80.96
2023-01-21T04:15:30.055Z,80.95
2023-01-21T04:18:33.411Z,80.93
2023-01-21T04:21:36.598Z,80.89
2023-01-21T04:24:40.473Z,80.86
2023-01-21T04:27:43.656Z,80.85
2023-01-21T04:30:47.541Z,80.82
2023-01-21T04:33:50.752Z,80.78
2023-01-21T04:36:53.927Z,80.73
2023-01-21T04:39:57.110Z,80.71
2023-01-21T04:43:00.318Z,80.69
2023-01-21T04:46:03.746Z,80.64
2023-01-21T04:49:06.916Z,80.64
2023-01-21T04:52:10.313Z,80.64
2023-01-21T04:55:13.520Z,80.64
2023-01-21T04:58:16.701Z,80.64
2023-01-21T05:01:19.839Z,80.66
2023-01-21T05:04:23.052Z,80.62
2023-01-21T05:07:26.342Z,80.59
2023-01-21T05:10:29.909Z,80.57
2023-01-21T05:13:33.418Z,80.60
2023-01-21T05:16:36.891Z,80.59
2023-01-21T05:19:40.085Z,80.55
2023-01-21T05:22:47.843Z,80.59
2023-01-21T05:25:51.129Z,80.60
2023-01-21T05:28:54.281Z,80.60
2023-01-21T05:31:57.478Z,80.60
2023-01-21T05:35:00.618Z,80.58
2023-01-21T05:38:03.875Z,80.55
2023-01-21T05:41:07.156Z,80.55
2023-01-21T05:44:10.619Z,80.52
2023-01-21T05:47:13.838Z,80.49
2023-01-21T05:50:18.299Z,80.48
2023-01-21T05:53:21.702Z,80.50
2023-01-21T05:56:24.905Z,80.53
2023-01-21T05:59:28.588Z,80.55
2023-01-21T06:02:31.851Z,80.57
2023-01-21T06:05:35.190Z,80.52
2023-01-21T06:08:38.621Z,80.51
2023-01-21T06:11:42.162Z,80.52
2023-01-21T06:14:45.299Z,80.50
2023-01-21T06:17:48.415Z,80.49
2023-01-21T06:20:51.677Z,80.48
2023-01-21T06:23:54.866Z,80.47
2023-01-21T06:26:58.043Z,80.46
2023-01-21T06:30:01.201Z,80.42
2023-01-21T06:33:04.632Z,80.39
2023-01-21T06:36:08.511Z,80.37
2023-01-21T06:39:11.841Z,80.38
2023-01-21T06:42:17.868Z,80.39
2023-01-21T06:45:21.133Z,80.35
2023-01-21T06:48:24.385Z,80.37
2023-01-21T06:51:27.635Z,80.35
2023-01-21T06:54:30.963Z,80.34
2023-01-21T06:57:34.154Z,80.34
2023-01-21T07:00:37.414Z,80.36
2023-01-21T07:03:40.595Z,80.36
2023-01-21T07:06:43.893Z,80.35
2023-01-21T07:09:47.193Z,80.33
2023-01-21T07:12:50.820Z,80.34
2023-01-21T07:15:59.851Z,80.34
2023-01-21T07:19:03.309Z,80.37
2023-01-21T07:22:06.607Z,80.38
2023-01-21T07:25:10.108Z,80.38
2023-01-21T07:28:13.303Z,80.40
2023-01-21T07:31:16.580Z,80.42
2023-01-21T07:34:19.916Z,80.44
2023-01-21T07:37:23.127Z,80.46
2023-01-21T07:40:26.416Z,80.48
2023-01-21T07:43:29.608Z,80.49
2023-01-21T07:46:33.329Z,80.48
2023-01-21T07:49:37.796Z,80.46
2023-01-21T07:52:41.106Z,80.47
2023-01-21T07:55:44.317Z,80.52
2023-01-21T07:58:47.747Z,80.55
2023-01-21T08:01:50.999Z,80.56
2023-01-21T08:04:54.370Z,80.58
2023-01-21T08:07:58.798Z,80.58
2023-01-21T08:11:02.042Z,80.57
2023-01-21T08:14:05.762Z,80.58
2023-01-21T08:17:09.870Z,80.58
2023-01-21T08:20:13.689Z,80.59
2023-01-21T08:23:16.914Z,80.60
2023-01-21T08:26:20.131Z,80.61
2023-01-21T08:29:23.360Z,80.65
2023-01-21T08:32:29.881Z,80.65
2023-01-21T08:35:33.065Z,80.66
2023-01-21T08:38:36.963Z,80.71
2023-01-21T08:41:42.879Z,80.73
2023-01-21T08:44:46.511Z,80.77
2023-01-21T08:47:49.675Z,80.78
2023-01-21T08:50:52.896Z,80.76
2023-01-21T08:53:56.117Z,80.71
2023-01-21T08:56:59.269Z,80.68
2023-01-21T09:00:02.491Z,80.65
2023-01-21T09:03:05.761Z,80.58
2023-01-21T09:06:12.617Z,80.47
2023-01-21T09:09:16.211Z,80.34
2023-01-21T09:12:19.531Z,80.31
2023-01-21T09:15:22.741Z,80.25
2023-01-21T09:18:26.053Z,80.18
2023-01-21T09:21:34.552Z,80.11
2023-01-21T09:24:37.850Z,80.04
2023-01-21T09:27:41.292Z,79.96
2023-01-21T09:30:44.730Z,79.87
2023-01-21T09:33:50.232Z,79.84
2023-01-21T09:36:53.555Z,79.82
2023-01-21T09:39:56.714Z,79.80
2023-01-21T09:43:11.020Z,79.81
2023-01-21T09:46:55.496Z,80.48
2023-01-21T09:50:14.169Z,80.32
2023-01-21T09:53:32.574Z,80.03
2023-01-21T09:56:45.566Z,79.83
2023-01-21T10:00:10.013Z,79.66
2023-01-21T10:03:37.297Z,79.51
2023-01-21T10:06:59.781Z,79.42
2023-01-21T10:10:27.890Z,79.38
2023-01-21T10:13:46.332Z,79.32
2023-01-21T10:17:13.601Z,79.30
2023-01-21T10:20:27.197Z,79.32
2023-01-21T10:23:43.718Z,79.36
2023-01-21T10:26:49.677Z,79.39
2023-01-21T10:30:22.396Z,79.37
2023-01-21T10:33:26.927Z,79.33
2023-01-21T10:36:49.392Z,79.35
2023-01-21T10:40:38.861Z,79.32
2023-01-21T10:43:54.959Z,79.26
2023-01-21T10:47:34.473Z,79.22
2023-01-21T10:51:28.794Z,79.24
2023-01-21T10:54:47.127Z,79.22
2023-01-21T10:58:04.068Z,79.18
2023-01-21T11:01:18.752Z,79.15
2023-01-21T11:04:24.482Z,79.14
2023-01-21T11:07:34.891Z,79.11
2023-01-21T11:10:40.359Z,79.08
2023-01-21T11:13:43.623Z,79.04
2023-01-21T11:16:50.059Z,78.92
2023-01-21T11:20:00.768Z,78.80
2023-01-21T11:23:24.339Z,78.80
2023-01-21T11:26:28.246Z,78.82
2023-01-21T11:29:41.553Z,78.76
2023-01-21T11:32:44.894Z,78.72
2023-01-21T11:35:48.422Z,78.70
2023-01-21T11:39:06.620Z,78.70
2023-01-21T11:42:17.120Z,78.69
2023-01-21T11:45:31.170Z,78.69
2023-01-21T11:48:35.430Z,78.63
2023-01-21T11:51:41.233Z,78.55
2023-01-21T11:54:45.326Z,78.50
2023-01-21T11:57:53.268Z,78.47
2023-01-21T12:00:59.945Z,78.44
2023-01-21T12:04:03.346Z,78.44
2023-01-21T12:07:06.655Z,78.41
2023-01-21T12:10:12.890Z,78.38
2023-01-21T12:13:24.092Z,78.32
2023-01-21T12:16:37.398Z,78.34
2023-01-21T12:19:57.463Z,78.35
2023-01-21T12:23:23.959Z,78.38
2023-01-21T12:26:33.014Z,78.40
2023-01-21T12:29:52.596Z,78.46
2023-01-21T12:33:03.718Z,78.39
2023-01-21T12:36:17.661Z,78.32
2023-01-21T12:39:29.094Z,78.28
2023-01-21T12:42:41.200Z,78.33
2023-01-21T12:45:53.640Z,79.19
2023-01-21T12:48:56.714Z,79.23
2023-01-21T12:52:07.551Z,79.16
2023-01-21T12:55:25.561Z,78.90
2023-01-21T12:58:42.852Z,78.73
2023-01-21T13:02:05.794Z,78.63
2023-01-21T13:05:19.389Z,78.60
2023-01-21T13:08:43.658Z,78.54
2023-01-21T13:11:54.830Z,78.50
2023-01-21T13:15:14.761Z,78.47
2023-01-21T13:18:35.489Z,78.45
2023-01-21T13:22:01.390Z,78.45
2023-01-21T13:25:25.679Z,78.44
2023-01-21T13:29:06.135Z,78.44
2023-01-21T13:32:18.963Z,78.51
2023-01-21T13:35:40.752Z,78.53
2023-01-21T13:38:55.275Z,78.57
2023-01-21T13:42:07.456Z,78.58
2023-01-21T13:45:34.743Z,78.60
2023-01-21T13:49:14.878Z,78.65
2023-01-21T13:52:39.408Z,78.66
2023-01-21T13:56:15.610Z,78.64
2023-01-21T13:59:25.179Z,78.62
2023-01-21T14:02:56.658Z,78.64
2023-01-21T14:06:17.638Z,78.65
2023-01-21T14:09:29.588Z,78.70
2023-01-21T14:12:54.946Z,78.69
2023-01-21T14:16:32.351Z,78.68
2023-01-21T14:19:54.715Z,78.70
2023-01-21T14:23:05.736Z,78.75
2023-01-21T14:26:35.996Z,78.75
2023-01-21T14:29:46.687Z,78.77
2023-01-21T14:32:57.159Z,78.81
2023-01-21T14:36:39.530Z,78.83
2023-01-21T14:40:09.612Z,78.83
2023-01-21T14:43:30.921Z,78.83
2023-01-21T14:46:34.405Z,78.89
2023-01-21T14:49:43.526Z,78.90
2023-01-21T14:52:47.242Z,78.92
2023-01-21T14:56:09.055Z,78.98
2023-01-21T14:59:43.654Z,79.06
2023-01-21T15:02:52.234Z,79.14
2023-01-21T15:06:00.507Z,79.14
2023-01-21T15:09:05.545Z,79.17
2023-01-21T15:12:22.144Z,79.22
2023-01-21T15:15:39.887Z,79.31
2023-01-21T15:19:05.179Z,79.39
2023-01-21T15:22:35.465Z,79.49
2023-01-21T15:26:07.456Z,79.57
2023-01-21T15:29:34.358Z,79.62
2023-01-21T15:32:44.769Z,79.68
2023-01-21T15:35:48.280Z,79.72
2023-01-21T15:38:54.591Z,79.79
2023-01-21T15:42:30.318Z,79.86
2023-01-21T15:45:45.109Z,79.92
2023-01-21T15:49:19.208Z,79.96
2023-01-21T15:52:44.151Z,80.00
2023-01-21T15:56:13.149Z,80.00
2023-01-21T15:59:36.050Z,80.01
2023-01-21T16:02:57.921Z,80.03
2023-01-21T16:06:14.909Z,80.03
2023-01-21T16:09:34.111Z,80.06
2023-01-21T16:12:43.526Z,80.12
2023-01-21T16:16:02.465Z,80.12
2023-01-21T16:19:13.519Z,80.11
2023-01-21T16:22:25.717Z,80.09
2023-01-21T16:25:29.061Z,80.12
2023-01-21T16:28:51.416Z,80.14
2023-01-21T16:32:01.532Z,80.12
2023-01-21T16:35:05.904Z,80.14
2023-01-21T16:38:15.303Z,80.14
2023-01-21T16:41:24.069Z,80.13
2023-01-21T16:44:27.492Z,80.16
2023-01-21T16:47:36.214Z,80.17
2023-01-21T16:50:46.710Z,80.18
2023-01-21T16:53:53.745Z,80.17
2023-01-21T16:57:02.488Z,80.17
2023-01-21T17:00:22.458Z,80.17
2023-01-21T17:03:25.813Z,80.17
2023-01-21T17:06:31.991Z,80.15
2023-01-21T17:09:37.121Z,80.12
2023-01-21T17:12:40.661Z,80.10
2023-01-21T17:15:57.396Z,80.07
2023-01-21T17:19:08.557Z,80.06
2023-01-21T17:22:19.017Z,80.05
2023-01-21T17:25:25.858Z,80.01
2023-01-21T17:28:44.376Z,79.98
2023-01-21T17:32:04.862Z,79.95
2023-01-21T17:35:17.884Z,79.94
2023-01-21T17:38:30.210Z,79.91
2023-01-21T17:41:38.245Z,79.89
2023-01-21T17:44:46.257Z,79.88
2023-01-21T17:48:08.596Z,79.88
2023-01-21T17:51:22.254Z,79.87
2023-01-21T17:54:29.680Z,79.88
2023-01-21T17:57:35.625Z,79.88
2023-01-21T18:00:43.251Z,79.87
2023-01-21T18:03:46.794Z,79.89
2023-01-21T18:06:52.219Z,79.89
2023-01-21T18:10:02.317Z,79.87
2023-01-21T18:13:05.949Z,79.88
2023-01-21T18:16:09.726Z,79.90
2023-01-21T18:19:32.202Z,79.92
2023-01-21T18:22:36.163Z,79.95
2023-01-21T18:25:43.609Z,79.98
2023-01-21T18:28:46.856Z,79.98
2023-01-21T18:31:52.174Z,80.03
2023-01-21T18:34:55.475Z,80.09
2023-01-21T18:37:58.681Z,80.13
2023-01-21T18:41:02.140Z,80.17
2023-01-21T18:44:05.455Z,80.19
2023-01-21T18:47:15.938Z,80.22
2023-01-21T18:50:22.401Z,80.25
2023-01-21T18:53:25.964Z,80.27
2023-01-21T18:56:29.230Z,80.29
2023-01-21T18:59:34.667Z,80.32
2023-01-21T19:02:38.915Z,80.36
2023-01-21T19:05:45.601Z,80.38
2023-01-21T19:08:51.233Z,80.43
2023-01-21T19:12:01.591Z,80.45
2023-01-21T19:15:08.193Z,80.48
2023-01-21T19:18:13.191Z,80.50
2023-01-21T19:21:16.988Z,80.54
2023-01-21T19:24:21.049Z,80.57
2023-01-21T19:27:29.340Z,80.61
2023-01-21T19:30:32.856Z,80.61
2023-01-21T19:33:36.253Z,80.61
2023-01-21T19:36:40.192Z,80.63
2023-01-21T19:39:43.412Z,80.65
2023-01-21T19:42:47.340Z,80.69
2023-01-21T19:45:52.845Z,80.71
2023-01-21T19:48:57.835Z,80.74
2023-01-21T19:52:01.180Z,80.77
2023-01-21T19:55:06.376Z,80.79
2023-01-21T19:58:19.760Z,80.78
2023-01-21T20:01:23.407Z,80.80
2023-01-21T20:04:26.598Z,80.82
2023-01-21T20:07:30.995Z,80.85
2023-01-21T20:10:34.229Z,80.87
2023-01-21T20:13:39.339Z,80.89
2023-01-21T20:16:50.043Z,80.90
2023-01-21T20:19:53.287Z,80.91
2023-01-21T20:22:56.769Z,80.93
2023-01-21T20:26:00.957Z,80.93
2023-01-21T20:29:06.752Z,80.91
2023-01-21T20:32:10.703Z,80.91
2023-01-21T20:35:15.919Z,80.89
2023-01-21T20:38:30.252Z,80.86
2023-01-21T20:41:34.442Z,80.87
2023-01-21T20:44:37.684Z,80.86
2023-01-21T20:47:50.128Z,80.86
2023-01-21T20:50:54.182Z,80.88
2023-01-21T20:53:57.447Z,80.88
2023-01-21T20:57:00.707Z,80.88
2023-01-21T21:00:05.440Z,80.92
2023-01-21T21:03:08.727Z,80.95
2023-01-21T21:06:22.079Z,80.97
2023-01-21T21:09:25.240Z,81.00
2023-01-21T21:12:28.448Z,81.02
2023-01-21T21:15:34.330Z,81.05
2023-01-21T21:18:37.473Z,81.06
2023-01-21T21:21:40.666Z,81.06
2023-01-21T21:24:43.945Z,81.07
2023-01-21T21:27:47.341Z,81.08
2023-01-21T21:30:50.553Z,81.08
2023-01-21T21:33:53.837Z,81.08
2023-01-21T21:36:57.252Z,81.12
2023-01-21T21:40:00.752Z,81.15
2023-01-21T21:43:23.559Z,81.20
2023-01-21T21:46:45.502Z,81.22
2023-01-21T21:49:48.693Z,81.19
2023-01-21T21:52:51.901Z,81.16
2023-01-21T21:55:55.089Z,81.12
2023-01-21T21:58:58.259Z,81.09
2023-01-21T22:02:01.443Z,81.01
2023-01-21T22:05:05.072Z,80.92
2023-01-21T22:08:09.249Z,80.85
2023-01-21T22:11:20.551Z,80.76
2023-01-21T22:14:23.708Z,80.65
2023-01-21T22:17:26.939Z,80.59
2023-01-21T22:20:30.134Z,80.51
2023-01-21T22:23:35.671Z,80.43
2023-01-21T22:26:38.863Z,80.36
2023-01-21T22:29:42.066Z,80.34
2023-01-21T22:32:45.369Z,80.33
2023-01-21T22:35:48.547Z,80.29
2023-01-21T22:38:52.557Z,80.22
2023-01-21T22:41:55.844Z,80.21
2023-01-21T22:44:59.073Z,80.24
2023-01-21T22:48:02.472Z,80.20
2023-01-21T22:51:05.916Z,80.15
2023-01-21T22:54:10.128Z,80.12
2023-01-21T22:57:13.542Z,80.05
2023-01-21T23:00:34.624Z,80.00
2023-01-21T23:03:37.858Z,80.00
2023-01-21T23:06:41.095Z,79.90
2023-01-21T23:09:44.330Z,79.78
2023-01-21T23:12:48.182Z,79.67
2023-01-21T23:15:51.427Z,79.59
2023-01-21T23:18:54.585Z,79.50
2023-01-21T23:21:57.741Z,79.41
2023-01-21T23:25:00.932Z,79.37
2023-01-21T23:28:04.335Z,79.27
2023-01-21T23:31:13.876Z,79.11
2023-01-21T23:34:17.716Z,78.99
2023-01-21T23:37:20.929Z,78.89
2023-01-21T23:40:24.064Z,78.81
2023-01-21T23:43:27.422Z,78.75
2023-01-21T23:46:30.785Z,78.68
2023-01-21T23:49:34.115Z,78.67
2023-01-21T23:52:40.818Z,78.69
2023-01-21T23:55:44.675Z,78.69
2023-01-21T23:58:48.159Z,78.67
